sensor_id;sensor_type;location;lat;lon;timestamp;P1;durP1;ratioP1;P2;durP2;ratioP2
9799;SDS011;4939;52.00085300;4.17406100;2022-10-16T00:01:13;7.18;;;2.08;;
9799;SDS011;4939;52.00085300;4.17406100;2022-10-16T00:03:39;6.43;;;2.08;;
9799;SDS011;4939;52.00085300;4.17406100;2022-10-16T00:06:06;3.67;;;1.17;;
9799;SDS011;4939;52.00085300;4.17406100;2022-10-16T00:08:33;5.38;;;1.50;;
9799;SDS011;4939;52.00085300;4.17406100;2022-10-16T00:11:03;5.03;;;1.50;;
9799;SDS011;4939;52.00085300;4.17406100;2022-10-16T00:13:30;9.85;;;2.17;;
9799;SDS011;4939;52.00085300;4.17406100;2022-10-16T00:15:56;4.68;;;1.42;;
9799;SDS011;4939;52.00085300;4.17406100;2022-10-16T00:18:23;6.93;;;2.00;;
9799;SDS011;4939;52.00085300;4.17406100;2022-10-16T00:20:49;3.80;;;1.30;;
9799;SDS011;4939;52.00085300;4.17406100;2022-10-16T00:23:15;4.18;;;1.48;;
9799;SDS011;4939;52.00085300;4.17406100;2022-10-16T00:25:41;5.38;;;1.35;;
9799;SDS011;4939;52.00085300;4.17406100;2022-10-16T00:28:08;5.60;;;1.40;;
9799;SDS011;4939;52.00085300;4.17406100;2022-10-16T00:30:37;4.72;;;1.20;;
9799;SDS011;4939;52.00085300;4.17406100;2022-10-16T00:33:03;3.65;;;1.20;;
9799;SDS011;4939;52.00085300;4.17406100;2022-10-16T00:35:30;3.55;;;1.20;;
9799;SDS011;4939;52.00085300;4.17406100;2022-10-16T00:37:56;4.10;;;1.30;;
9799;SDS011;4939;52.00085300;4.17406100;2022-10-16T00:40:22;4.55;;;1.30;;
9799;SDS011;4939;52.00085300;4.17406100;2022-10-16T00:42:48;4.10;;;1.25;;
9799;SDS011;4939;52.00085300;4.17406100;2022-10-16T00:45:15;5.38;;;1.20;;
9799;SDS011;4939;52.00085300;4.17406100;2022-10-16T00:47:43;4.00;;;1.20;;
9799;SDS011;4939;52.00085300;4.17406100;2022-10-16T00:50:20;1.90;;;0.85;;
9799;SDS011;4939;52.00085300;4.17406100;2022-10-16T00:52:48;4.72;;;1.10;;
9799;SDS011;4939;52.00085300;4.17406100;2022-10-16T00:55:15;5.10;;;1.30;;
9799;SDS011;4939;52.00085300;4.17406100;2022-10-16T00:57:42;4.38;;;1.13;;
9799;SDS011;4939;52.00085300;4.17406100;2022-10-16T01:00:10;9.23;;;1.70;;
9799;SDS011;4939;52.00085300;4.17406100;2022-10-16T01:02:37;8.48;;;1.67;;
9799;SDS011;4939;52.00085300;4.17406100;2022-10-16T01:05:03;6.18;;;1.50;;
9799;SDS011;4939;52.00085300;4.17406100;2022-10-16T01:13:00;4.85;;;1.38;;
9799;SDS011;4939;52.00085300;4.17406100;2022-10-16T01:15:42;4.03;;;1.50;;
9799;SDS011;4939;52.00085300;4.17406100;2022-10-16T01:20:44;5.38;;;1.35;;
9799;SDS011;4939;52.00085300;4.17406100;2022-10-16T01:28:17;4.30;;;1.50;;
9799;SDS011;4939;52.00085300;4.17406100;2022-10-16T01:30:44;4.93;;;1.50;;
9799;SDS011;4939;52.00085300;4.17406100;2022-10-16T01:33:15;8.77;;;3.40;;
9799;SDS011;4939;52.00085300;4.17406100;2022-10-16T01:35:43;12.55;;;6.32;;
9799;SDS011;4939;52.00085300;4.17406100;2022-10-16T01:38:31;10.48;;;5.35;;
9799;SDS011;4939;52.00085300;4.17406100;2022-10-16T01:41:00;8.77;;;3.30;;
9799;SDS011;4939;52.00085300;4.17406100;2022-10-16T01:43:28;6.60;;;1.98;;
9799;SDS011;4939;52.00085300;4.17406100;2022-10-16T01:45:57;4.95;;;1.70;;
9799;SDS011;4939;52.00085300;4.17406100;2022-10-16T01:48:24;5.57;;;1.80;;
9799;SDS011;4939;52.00085300;4.17406100;2022-10-16T01:50:55;4.68;;;1.50;;
9799;SDS011;4939;52.00085300;4.17406100;2022-10-16T01:53:22;5.18;;;1.50;;
9799;SDS011;4939;52.00085300;4.17406100;2022-10-16T01:55:49;5.20;;;1.80;;
9799;SDS011;4939;52.00085300;4.17406100;2022-10-16T01:58:18;5.75;;;1.63;;
9799;SDS011;4939;52.00085300;4.17406100;2022-10-16T02:00:44;5.72;;;1.48;;
9799;SDS011;4939;52.00085300;4.17406100;2022-10-16T02:03:12;5.78;;;2.05;;
9799;SDS011;4939;52.00085300;4.17406100;2022-10-16T02:05:41;5.95;;;2.00;;
9799;SDS011;4939;52.00085300;4.17406100;2022-10-16T02:08:08;5.40;;;1.80;;
9799;SDS011;4939;52.00085300;4.17406100;2022-10-16T02:10:35;5.53;;;2.08;;
9799;SDS011;4939;52.00085300;4.17406100;2022-10-16T02:13:22;6.15;;;2.10;;
9799;SDS011;4939;52.00085300;4.17406100;2022-10-16T02:15:49;8.23;;;2.45;;
9799;SDS011;4939;52.00085300;4.17406100;2022-10-16T02:18:15;6.70;;;2.10;;
9799;SDS011;4939;52.00085300;4.17406100;2022-10-16T02:23:12;5.43;;;1.95;;
9799;SDS011;4939;52.00085300;4.17406100;2022-10-16T02:25:40;7.07;;;2.00;;
9799;SDS011;4939;52.00085300;4.17406100;2022-10-16T02:28:16;6.43;;;2.03;;
9799;SDS011;4939;52.00085300;4.17406100;2022-10-16T02:30:50;7.88;;;2.40;;
9799;SDS011;4939;52.00085300;4.17406100;2022-10-16T02:33:17;10.63;;;3.53;;
9799;SDS011;4939;52.00085300;4.17406100;2022-10-16T02:35:44;7.40;;;2.20;;
9799;SDS011;4939;52.00085300;4.17406100;2022-10-16T02:38:12;6.57;;;2.25;;
9799;SDS011;4939;52.00085300;4.17406100;2022-10-16T02:40:38;6.80;;;2.00;;
9799;SDS011;4939;52.00085300;4.17406100;2022-10-16T02:43:05;7.60;;;1.95;;
9799;SDS011;4939;52.00085300;4.17406100;2022-10-16T02:45:31;4.90;;;2.00;;
9799;SDS011;4939;52.00085300;4.17406100;2022-10-16T02:47:57;8.15;;;1.90;;
9799;SDS011;4939;52.00085300;4.17406100;2022-10-16T02:50:23;9.82;;;2.58;;
9799;SDS011;4939;52.00085300;4.17406100;2022-10-16T02:52:50;5.78;;;1.65;;
9799;SDS011;4939;52.00085300;4.17406100;2022-10-16T02:55:16;9.48;;;1.80;;
9799;SDS011;4939;52.00085300;4.17406100;2022-10-16T02:57:42;5.88;;;1.50;;
9799;SDS011;4939;52.00085300;4.17406100;2022-10-16T03:00:09;5.00;;;1.77;;
9799;SDS011;4939;52.00085300;4.17406100;2022-10-16T03:02:37;6.32;;;1.50;;
9799;SDS011;4939;52.00085300;4.17406100;2022-10-16T03:05:03;5.80;;;2.08;;
9799;SDS011;4939;52.00085300;4.17406100;2022-10-16T03:07:29;6.05;;;1.60;;
9799;SDS011;4939;52.00085300;4.17406100;2022-10-16T03:09:55;6.88;;;2.40;;
9799;SDS011;4939;52.00085300;4.17406100;2022-10-16T03:12:22;5.93;;;1.60;;
9799;SDS011;4939;52.00085300;4.17406100;2022-10-16T03:14:48;7.45;;;1.63;;
9799;SDS011;4939;52.00085300;4.17406100;2022-10-16T03:17:14;6.32;;;1.70;;
9799;SDS011;4939;52.00085300;4.17406100;2022-10-16T03:19:41;5.68;;;1.63;;
9799;SDS011;4939;52.00085300;4.17406100;2022-10-16T03:22:07;6.70;;;1.40;;
9799;SDS011;4939;52.00085300;4.17406100;2022-10-16T03:24:34;5.60;;;1.58;;
9799;SDS011;4939;52.00085300;4.17406100;2022-10-16T03:27:00;5.63;;;1.65;;
9799;SDS011;4939;52.00085300;4.17406100;2022-10-16T03:29:26;8.57;;;2.03;;
9799;SDS011;4939;52.00085300;4.17406100;2022-10-16T03:31:54;5.85;;;1.30;;
9799;SDS011;4939;52.00085300;4.17406100;2022-10-16T03:34:20;4.75;;;1.40;;
9799;SDS011;4939;52.00085300;4.17406100;2022-10-16T03:36:46;4.25;;;1.50;;
9799;SDS011;4939;52.00085300;4.17406100;2022-10-16T03:39:12;9.13;;;1.98;;
9799;SDS011;4939;52.00085300;4.17406100;2022-10-16T03:41:39;7.70;;;1.60;;
9799;SDS011;4939;52.00085300;4.17406100;2022-10-16T03:44:05;7.45;;;1.30;;
9799;SDS011;4939;52.00085300;4.17406100;2022-10-16T03:46:31;6.18;;;1.90;;
9799;SDS011;4939;52.00085300;4.17406100;2022-10-16T03:48:57;9.27;;;1.50;;
9799;SDS011;4939;52.00085300;4.17406100;2022-10-16T03:51:23;5.50;;;1.52;;
9799;SDS011;4939;52.00085300;4.17406100;2022-10-16T03:53:49;6.07;;;1.60;;
9799;SDS011;4939;52.00085300;4.17406100;2022-10-16T03:56:15;6.13;;;1.40;;
9799;SDS011;4939;52.00085300;4.17406100;2022-10-16T03:58:41;5.53;;;1.58;;
9799;SDS011;4939;52.00085300;4.17406100;2022-10-16T04:01:08;8.60;;;1.80;;
9799;SDS011;4939;52.00085300;4.17406100;2022-10-16T04:03:34;4.70;;;1.67;;
9799;SDS011;4939;52.00085300;4.17406100;2022-10-16T04:06:00;5.82;;;1.50;;
9799;SDS011;4939;52.00085300;4.17406100;2022-10-16T04:08:26;4.78;;;1.35;;
9799;SDS011;4939;52.00085300;4.17406100;2022-10-16T04:10:52;5.13;;;1.58;;
9799;SDS011;4939;52.00085300;4.17406100;2022-10-16T04:13:18;6.60;;;1.65;;
9799;SDS011;4939;52.00085300;4.17406100;2022-10-16T04:15:44;6.47;;;1.40;;
9799;SDS011;4939;52.00085300;4.17406100;2022-10-16T04:18:11;5.25;;;1.50;;
9799;SDS011;4939;52.00085300;4.17406100;2022-10-16T04:20:37;6.45;;;1.60;;
9799;SDS011;4939;52.00085300;4.17406100;2022-10-16T04:23:03;7.05;;;1.60;;
9799;SDS011;4939;52.00085300;4.17406100;2022-10-16T04:25:30;4.05;;;1.63;;
9799;SDS011;4939;52.00085300;4.17406100;2022-10-16T04:27:56;5.85;;;1.58;;
9799;SDS011;4939;52.00085300;4.17406100;2022-10-16T04:30:22;6.82;;;1.80;;
9799;SDS011;4939;52.00085300;4.17406100;2022-10-16T04:32:52;6.68;;;1.60;;
9799;SDS011;4939;52.00085300;4.17406100;2022-10-16T04:35:18;5.30;;;1.60;;
9799;SDS011;4939;52.00085300;4.17406100;2022-10-16T04:37:45;9.00;;;2.08;;
9799;SDS011;4939;52.00085300;4.17406100;2022-10-16T04:40:11;7.82;;;1.77;;
9799;SDS011;4939;52.00085300;4.17406100;2022-10-16T04:42:37;6.53;;;1.70;;
9799;SDS011;4939;52.00085300;4.17406100;2022-10-16T04:45:04;8.15;;;2.20;;
9799;SDS011;4939;52.00085300;4.17406100;2022-10-16T04:47:30;6.30;;;1.60;;
9799;SDS011;4939;52.00085300;4.17406100;2022-10-16T04:49:57;7.30;;;1.85;;
9799;SDS011;4939;52.00085300;4.17406100;2022-10-16T04:52:24;11.80;;;2.40;;
9799;SDS011;4939;52.00085300;4.17406100;2022-10-16T04:54:51;4.18;;;1.52;;
9799;SDS011;4939;52.00085300;4.17406100;2022-10-16T04:57:17;6.68;;;1.90;;
9799;SDS011;4939;52.00085300;4.17406100;2022-10-16T04:59:43;11.35;;;2.20;;
9799;SDS011;4939;52.00085300;4.17406100;2022-10-16T05:02:09;11.77;;;1.98;;
9799;SDS011;4939;52.00085300;4.17406100;2022-10-16T05:04:35;7.95;;;2.00;;
9799;SDS011;4939;52.00085300;4.17406100;2022-10-16T05:07:01;10.98;;;2.63;;
9799;SDS011;4939;52.00085300;4.17406100;2022-10-16T05:09:27;8.52;;;2.20;;
9799;SDS011;4939;52.00085300;4.17406100;2022-10-16T05:11:53;5.88;;;2.50;;
9799;SDS011;4939;52.00085300;4.17406100;2022-10-16T05:14:20;8.63;;;2.90;;
9799;SDS011;4939;52.00085300;4.17406100;2022-10-16T05:16:46;7.65;;;2.10;;
9799;SDS011;4939;52.00085300;4.17406100;2022-10-16T05:19:13;7.85;;;2.30;;
9799;SDS011;4939;52.00085300;4.17406100;2022-10-16T05:21:39;8.57;;;2.30;;
9799;SDS011;4939;52.00085300;4.17406100;2022-10-16T05:24:05;10.40;;;2.45;;
9799;SDS011;4939;52.00085300;4.17406100;2022-10-16T05:26:31;8.35;;;2.10;;
9799;SDS011;4939;52.00085300;4.17406100;2022-10-16T05:28:57;7.15;;;2.20;;
9799;SDS011;4939;52.00085300;4.17406100;2022-10-16T05:31:23;6.72;;;2.22;;
9799;SDS011;4939;52.00085300;4.17406100;2022-10-16T05:33:50;10.00;;;2.72;;
9799;SDS011;4939;52.00085300;4.17406100;2022-10-16T05:36:16;7.22;;;2.33;;
9799;SDS011;4939;52.00085300;4.17406100;2022-10-16T05:38:43;7.53;;;2.10;;
9799;SDS011;4939;52.00085300;4.17406100;2022-10-16T05:41:09;8.65;;;2.58;;
9799;SDS011;4939;52.00085300;4.17406100;2022-10-16T05:43:35;10.38;;;2.13;;
9799;SDS011;4939;52.00085300;4.17406100;2022-10-16T05:46:03;7.88;;;2.22;;
9799;SDS011;4939;52.00085300;4.17406100;2022-10-16T05:48:30;6.68;;;2.10;;
9799;SDS011;4939;52.00085300;4.17406100;2022-10-16T05:50:57;7.60;;;2.25;;
9799;SDS011;4939;52.00085300;4.17406100;2022-10-16T05:53:23;7.97;;;1.77;;
9799;SDS011;4939;52.00085300;4.17406100;2022-10-16T05:55:57;9.70;;;1.65;;
9799;SDS011;4939;52.00085300;4.17406100;2022-10-16T05:58:25;6.32;;;1.90;;
9799;SDS011;4939;52.00085300;4.17406100;2022-10-16T06:00:54;8.80;;;1.80;;
9799;SDS011;4939;52.00085300;4.17406100;2022-10-16T06:03:21;16.67;;;2.00;;
9799;SDS011;4939;52.00085300;4.17406100;2022-10-16T06:05:47;9.73;;;1.90;;
9799;SDS011;4939;52.00085300;4.17406100;2022-10-16T06:08:13;7.88;;;1.90;;
9799;SDS011;4939;52.00085300;4.17406100;2022-10-16T06:10:39;8.32;;;1.85;;
9799;SDS011;4939;52.00085300;4.17406100;2022-10-16T06:13:05;11.70;;;1.88;;
9799;SDS011;4939;52.00085300;4.17406100;2022-10-16T06:15:31;9.98;;;2.10;;
9799;SDS011;4939;52.00085300;4.17406100;2022-10-16T06:17:57;12.00;;;1.77;;
9799;SDS011;4939;52.00085300;4.17406100;2022-10-16T06:20:23;13.30;;;2.25;;
9799;SDS011;4939;52.00085300;4.17406100;2022-10-16T06:22:49;9.45;;;1.77;;
9799;SDS011;4939;52.00085300;4.17406100;2022-10-16T06:25:15;7.80;;;1.65;;
9799;SDS011;4939;52.00085300;4.17406100;2022-10-16T06:27:42;10.82;;;2.00;;
9799;SDS011;4939;52.00085300;4.17406100;2022-10-16T06:30:08;11.43;;;3.13;;
9799;SDS011;4939;52.00085300;4.17406100;2022-10-16T06:32:34;12.23;;;1.83;;
9799;SDS011;4939;52.00085300;4.17406100;2022-10-16T06:35:00;10.75;;;2.22;;
9799;SDS011;4939;52.00085300;4.17406100;2022-10-16T06:37:27;8.00;;;2.28;;
9799;SDS011;4939;52.00085300;4.17406100;2022-10-16T06:39:53;10.90;;;1.98;;
9799;SDS011;4939;52.00085300;4.17406100;2022-10-16T06:42:19;8.50;;;1.90;;
9799;SDS011;4939;52.00085300;4.17406100;2022-10-16T06:44:45;7.75;;;2.90;;
9799;SDS011;4939;52.00085300;4.17406100;2022-10-16T06:47:11;9.68;;;2.42;;
9799;SDS011;4939;52.00085300;4.17406100;2022-10-16T06:49:37;7.78;;;2.20;;
9799;SDS011;4939;52.00085300;4.17406100;2022-10-16T06:52:03;7.85;;;2.03;;
9799;SDS011;4939;52.00085300;4.17406100;2022-10-16T06:54:30;8.90;;;2.33;;
9799;SDS011;4939;52.00085300;4.17406100;2022-10-16T06:56:56;9.93;;;2.70;;
9799;SDS011;4939;52.00085300;4.17406100;2022-10-16T06:59:22;11.95;;;2.30;;
9799;SDS011;4939;52.00085300;4.17406100;2022-10-16T07:01:49;9.88;;;2.13;;
9799;SDS011;4939;52.00085300;4.17406100;2022-10-16T07:04:15;6.07;;;1.85;;
9799;SDS011;4939;52.00085300;4.17406100;2022-10-16T07:06:41;7.30;;;2.15;;
9799;SDS011;4939;52.00085300;4.17406100;2022-10-16T07:09:09;8.68;;;2.47;;
9799;SDS011;4939;52.00085300;4.17406100;2022-10-16T07:11:40;8.02;;;2.33;;
9799;SDS011;4939;52.00085300;4.17406100;2022-10-16T07:14:24;14.70;;;3.00;;
9799;SDS011;4939;52.00085300;4.17406100;2022-10-16T07:16:51;9.95;;;2.65;;
9799;SDS011;4939;52.00085300;4.17406100;2022-10-16T07:19:17;9.98;;;2.83;;
9799;SDS011;4939;52.00085300;4.17406100;2022-10-16T07:21:43;11.05;;;2.47;;
9799;SDS011;4939;52.00085300;4.17406100;2022-10-16T07:24:14;10.85;;;2.58;;
9799;SDS011;4939;52.00085300;4.17406100;2022-10-16T07:26:40;9.98;;;2.47;;
9799;SDS011;4939;52.00085300;4.17406100;2022-10-16T07:29:11;13.15;;;2.83;;
9799;SDS011;4939;52.00085300;4.17406100;2022-10-16T07:31:38;9.60;;;2.60;;
9799;SDS011;4939;52.00085300;4.17406100;2022-10-16T07:34:04;13.95;;;3.58;;
9799;SDS011;4939;52.00085300;4.17406100;2022-10-16T07:36:31;10.05;;;2.53;;
9799;SDS011;4939;52.00085300;4.17406100;2022-10-16T07:38:57;8.85;;;2.45;;
9799;SDS011;4939;52.00085300;4.17406100;2022-10-16T07:41:23;6.57;;;2.03;;
9799;SDS011;4939;52.00085300;4.17406100;2022-10-16T07:43:50;7.22;;;1.88;;
9799;SDS011;4939;52.00085300;4.17406100;2022-10-16T07:46:17;21.08;;;3.95;;
9799;SDS011;4939;52.00085300;4.17406100;2022-10-16T07:48:43;10.23;;;2.22;;
9799;SDS011;4939;52.00085300;4.17406100;2022-10-16T07:51:12;11.95;;;2.42;;
9799;SDS011;4939;52.00085300;4.17406100;2022-10-16T07:53:39;12.82;;;2.25;;
9799;SDS011;4939;52.00085300;4.17406100;2022-10-16T07:56:05;10.07;;;2.08;;
9799;SDS011;4939;52.00085300;4.17406100;2022-10-16T07:58:32;10.60;;;1.98;;
9799;SDS011;4939;52.00085300;4.17406100;2022-10-16T08:00:58;6.07;;;2.13;;
9799;SDS011;4939;52.00085300;4.17406100;2022-10-16T08:03:25;12.13;;;2.40;;
9799;SDS011;4939;52.00085300;4.17406100;2022-10-16T08:05:51;8.15;;;2.05;;
9799;SDS011;4939;52.00085300;4.17406100;2022-10-16T08:08:18;12.60;;;2.50;;
9799;SDS011;4939;52.00085300;4.17406100;2022-10-16T08:10:44;7.47;;;2.00;;
9799;SDS011;4939;52.00085300;4.17406100;2022-10-16T08:13:10;8.57;;;2.20;;
9799;SDS011;4939;52.00085300;4.17406100;2022-10-16T08:15:39;10.90;;;1.92;;
9799;SDS011;4939;52.00085300;4.17406100;2022-10-16T08:18:05;17.35;;;3.63;;
9799;SDS011;4939;52.00085300;4.17406100;2022-10-16T08:20:32;8.80;;;2.00;;
9799;SDS011;4939;52.00085300;4.17406100;2022-10-16T08:22:59;15.02;;;2.35;;
9799;SDS011;4939;52.00085300;4.17406100;2022-10-16T08:25:26;11.10;;;2.30;;
9799;SDS011;4939;52.00085300;4.17406100;2022-10-16T08:27:52;12.13;;;1.90;;
9799;SDS011;4939;52.00085300;4.17406100;2022-10-16T08:30:19;14.63;;;3.17;;
9799;SDS011;4939;52.00085300;4.17406100;2022-10-16T08:32:46;7.88;;;2.42;;
9799;SDS011;4939;52.00085300;4.17406100;2022-10-16T08:35:12;17.88;;;2.22;;
9799;SDS011;4939;52.00085300;4.17406100;2022-10-16T08:37:39;15.40;;;2.50;;
9799;SDS011;4939;52.00085300;4.17406100;2022-10-16T08:40:07;12.18;;;2.95;;
9799;SDS011;4939;52.00085300;4.17406100;2022-10-16T08:45:17;9.40;;;2.35;;
9799;SDS011;4939;52.00085300;4.17406100;2022-10-16T08:48:00;13.18;;;2.38;;
9799;SDS011;4939;52.00085300;4.17406100;2022-10-16T08:50:29;11.68;;;2.65;;
9799;SDS011;4939;52.00085300;4.17406100;2022-10-16T08:52:56;15.07;;;2.80;;
9799;SDS011;4939;52.00085300;4.17406100;2022-10-16T08:55:28;13.52;;;2.88;;
9799;SDS011;4939;52.00085300;4.17406100;2022-10-16T08:57:57;15.20;;;2.30;;
9799;SDS011;4939;52.00085300;4.17406100;2022-10-16T09:00:23;13.52;;;2.97;;
9799;SDS011;4939;52.00085300;4.17406100;2022-10-16T09:05:18;15.63;;;3.03;;
9799;SDS011;4939;52.00085300;4.17406100;2022-10-16T09:15:41;15.10;;;2.60;;
9799;SDS011;4939;52.00085300;4.17406100;2022-10-16T09:20:45;21.90;;;2.90;;
9799;SDS011;4939;52.00085300;4.17406100;2022-10-16T09:23:17;13.60;;;3.63;;
9799;SDS011;4939;52.00085300;4.17406100;2022-10-16T09:25:47;13.35;;;2.50;;
9799;SDS011;4939;52.00085300;4.17406100;2022-10-16T09:28:14;17.75;;;2.40;;
9799;SDS011;4939;52.00085300;4.17406100;2022-10-16T09:30:42;14.85;;;2.30;;
9799;SDS011;4939;52.00085300;4.17406100;2022-10-16T09:33:09;18.42;;;2.60;;
9799;SDS011;4939;52.00085300;4.17406100;2022-10-16T09:35:38;18.33;;;2.80;;
9799;SDS011;4939;52.00085300;4.17406100;2022-10-16T09:38:04;14.52;;;2.58;;
9799;SDS011;4939;52.00085300;4.17406100;2022-10-16T09:40:31;16.45;;;2.53;;
9799;SDS011;4939;52.00085300;4.17406100;2022-10-16T09:43:16;17.75;;;2.45;;
9799;SDS011;4939;52.00085300;4.17406100;2022-10-16T09:45:52;15.45;;;2.58;;
9799;SDS011;4939;52.00085300;4.17406100;2022-10-16T09:48:19;15.25;;;2.42;;
9799;SDS011;4939;52.00085300;4.17406100;2022-10-16T09:50:55;20.25;;;2.80;;
9799;SDS011;4939;52.00085300;4.17406100;2022-10-16T09:53:21;16.65;;;3.00;;
9799;SDS011;4939;52.00085300;4.17406100;2022-10-16T09:55:51;14.43;;;3.30;;
9799;SDS011;4939;52.00085300;4.17406100;2022-10-16T09:58:18;13.65;;;3.40;;
9799;SDS011;4939;52.00085300;4.17406100;2022-10-16T10:00:50;16.02;;;2.85;;
9799;SDS011;4939;52.00085300;4.17406100;2022-10-16T10:03:31;13.52;;;2.78;;
9799;SDS011;4939;52.00085300;4.17406100;2022-10-16T10:06:00;18.48;;;3.00;;
9799;SDS011;4939;52.00085300;4.17406100;2022-10-16T10:08:26;19.60;;;3.70;;
9799;SDS011;4939;52.00085300;4.17406100;2022-10-16T10:10:53;20.67;;;2.67;;
9799;SDS011;4939;52.00085300;4.17406100;2022-10-16T10:13:20;30.27;;;3.88;;
9799;SDS011;4939;52.00085300;4.17406100;2022-10-16T10:15:47;16.10;;;2.78;;
9799;SDS011;4939;52.00085300;4.17406100;2022-10-16T10:18:20;12.00;;;1.95;;
9799;SDS011;4939;52.00085300;4.17406100;2022-10-16T10:20:58;14.95;;;2.92;;
9799;SDS011;4939;52.00085300;4.17406100;2022-10-16T10:23:25;16.08;;;3.28;;
9799;SDS011;4939;52.00085300;4.17406100;2022-10-16T10:33:44;15.90;;;3.17;;
9799;SDS011;4939;52.00085300;4.17406100;2022-10-16T10:36:33;15.52;;;2.75;;
9799;SDS011;4939;52.00085300;4.17406100;2022-10-16T10:39:00;19.83;;;3.20;;
9799;SDS011;4939;52.00085300;4.17406100;2022-10-16T10:44:07;15.70;;;2.70;;
9799;SDS011;4939;52.00085300;4.17406100;2022-10-16T10:56:44;16.75;;;2.47;;
9799;SDS011;4939;52.00085300;4.17406100;2022-10-16T10:59:37;11.75;;;2.90;;
9799;SDS011;4939;52.00085300;4.17406100;2022-10-16T11:04:29;13.10;;;2.83;;
9799;SDS011;4939;52.00085300;4.17406100;2022-10-16T11:06:59;17.75;;;2.40;;
9799;SDS011;4939;52.00085300;4.17406100;2022-10-16T11:09:28;12.82;;;2.22;;
9799;SDS011;4939;52.00085300;4.17406100;2022-10-16T11:12:58;16.08;;;2.60;;
9799;SDS011;4939;52.00085300;4.17406100;2022-10-16T11:15:01;14.60;;;2.00;;
9799;SDS011;4939;52.00085300;4.17406100;2022-10-16T11:17:33;10.82;;;1.77;;
9799;SDS011;4939;52.00085300;4.17406100;2022-10-16T11:20:05;11.65;;;2.75;;
9799;SDS011;4939;52.00085300;4.17406100;2022-10-16T11:22:38;16.50;;;1.92;;
9799;SDS011;4939;52.00085300;4.17406100;2022-10-16T11:25:21;12.43;;;2.10;;
9799;SDS011;4939;52.00085300;4.17406100;2022-10-16T11:30:16;11.63;;;2.58;;
9799;SDS011;4939;52.00085300;4.17406100;2022-10-16T11:32:51;11.15;;;2.30;;
9799;SDS011;4939;52.00085300;4.17406100;2022-10-16T11:35:23;11.32;;;2.05;;
9799;SDS011;4939;52.00085300;4.17406100;2022-10-16T11:37:50;12.57;;;2.08;;
9799;SDS011;4939;52.00085300;4.17406100;2022-10-16T11:40:25;10.68;;;2.10;;
9799;SDS011;4939;52.00085300;4.17406100;2022-10-16T11:42:57;17.25;;;3.08;;
9799;SDS011;4939;52.00085300;4.17406100;2022-10-16T11:45:26;21.42;;;3.03;;
9799;SDS011;4939;52.00085300;4.17406100;2022-10-16T11:50:53;13.13;;;2.30;;
9799;SDS011;4939;52.00085300;4.17406100;2022-10-16T11:53:38;17.50;;;3.22;;
9799;SDS011;4939;52.00085300;4.17406100;2022-10-16T11:56:08;11.98;;;2.50;;
9799;SDS011;4939;52.00085300;4.17406100;2022-10-16T11:58:41;10.98;;;2.53;;
9799;SDS011;4939;52.00085300;4.17406100;2022-10-16T12:01:16;12.45;;;2.38;;
9799;SDS011;4939;52.00085300;4.17406100;2022-10-16T12:03:59;13.88;;;2.83;;
9799;SDS011;4939;52.00085300;4.17406100;2022-10-16T12:08:58;13.80;;;1.70;;
9799;SDS011;4939;52.00085300;4.17406100;2022-10-16T12:14:59;14.00;;;2.65;;
9799;SDS011;4939;52.00085300;4.17406100;2022-10-16T12:19:19;13.07;;;2.42;;
9799;SDS011;4939;52.00085300;4.17406100;2022-10-16T12:21:46;18.27;;;2.85;;
9799;SDS011;4939;52.00085300;4.17406100;2022-10-16T12:24:20;15.35;;;2.60;;
9799;SDS011;4939;52.00085300;4.17406100;2022-10-16T12:26:47;14.68;;;2.00;;
9799;SDS011;4939;52.00085300;4.17406100;2022-10-16T12:29:19;7.97;;;2.05;;
9799;SDS011;4939;52.00085300;4.17406100;2022-10-16T12:31:48;14.52;;;2.45;;
9799;SDS011;4939;52.00085300;4.17406100;2022-10-16T12:34:20;10.70;;;2.63;;
9799;SDS011;4939;52.00085300;4.17406100;2022-10-16T12:36:47;13.10;;;2.08;;
9799;SDS011;4939;52.00085300;4.17406100;2022-10-16T12:39:20;12.98;;;2.30;;
9799;SDS011;4939;52.00085300;4.17406100;2022-10-16T12:41:47;10.35;;;2.13;;
9799;SDS011;4939;52.00085300;4.17406100;2022-10-16T12:44:25;11.32;;;2.00;;
9799;SDS011;4939;52.00085300;4.17406100;2022-10-16T12:46:51;13.77;;;1.92;;
9799;SDS011;4939;52.00085300;4.17406100;2022-10-16T12:51:46;11.55;;;2.83;;
9799;SDS011;4939;52.00085300;4.17406100;2022-10-16T13:02:03;13.85;;;2.30;;
9799;SDS011;4939;52.00085300;4.17406100;2022-10-16T13:04:39;18.50;;;2.28;;
9799;SDS011;4939;52.00085300;4.17406100;2022-10-16T13:07:18;16.02;;;2.45;;
9799;SDS011;4939;52.00085300;4.17406100;2022-10-16T13:10:11;12.87;;;2.40;;
9799;SDS011;4939;52.00085300;4.17406100;2022-10-16T13:12:44;12.80;;;2.17;;
9799;SDS011;4939;52.00085300;4.17406100;2022-10-16T13:15:30;14.60;;;2.22;;
9799;SDS011;4939;52.00085300;4.17406100;2022-10-16T13:23:15;13.35;;;2.67;;
9799;SDS011;4939;52.00085300;4.17406100;2022-10-16T13:28:09;18.00;;;2.83;;
9799;SDS011;4939;52.00085300;4.17406100;2022-10-16T13:30:42;14.10;;;2.88;;
9799;SDS011;4939;52.00085300;4.17406100;2022-10-16T13:35:35;17.10;;;2.65;;
9799;SDS011;4939;52.00085300;4.17406100;2022-10-16T13:40:30;12.73;;;2.47;;
9799;SDS011;4939;52.00085300;4.17406100;2022-10-16T13:42:59;14.10;;;2.47;;
9799;SDS011;4939;52.00085300;4.17406100;2022-10-16T13:45:25;8.77;;;1.73;;
9799;SDS011;4939;52.00085300;4.17406100;2022-10-16T13:48:01;18.38;;;2.90;;
9799;SDS011;4939;52.00085300;4.17406100;2022-10-16T13:50:27;12.90;;;2.80;;
9799;SDS011;4939;52.00085300;4.17406100;2022-10-16T13:53:03;10.63;;;2.05;;
9799;SDS011;4939;52.00085300;4.17406100;2022-10-16T13:55:29;14.35;;;2.08;;
9799;SDS011;4939;52.00085300;4.17406100;2022-10-16T13:58:04;14.27;;;2.60;;
9799;SDS011;4939;52.00085300;4.17406100;2022-10-16T14:00:30;10.10;;;2.17;;
9799;SDS011;4939;52.00085300;4.17406100;2022-10-16T14:02:58;10.27;;;2.40;;
9799;SDS011;4939;52.00085300;4.17406100;2022-10-16T14:05:26;10.60;;;2.22;;
9799;SDS011;4939;52.00085300;4.17406100;2022-10-16T14:07:52;14.65;;;2.58;;
9799;SDS011;4939;52.00085300;4.17406100;2022-10-16T14:10:32;15.30;;;3.70;;
9799;SDS011;4939;52.00085300;4.17406100;2022-10-16T14:13:05;13.82;;;2.47;;
9799;SDS011;4939;52.00085300;4.17406100;2022-10-16T14:15:32;11.32;;;2.60;;
9799;SDS011;4939;52.00085300;4.17406100;2022-10-16T14:17:59;17.40;;;2.80;;
9799;SDS011;4939;52.00085300;4.17406100;2022-10-16T14:20:26;16.40;;;2.67;;
9799;SDS011;4939;52.00085300;4.17406100;2022-10-16T14:23:00;15.60;;;2.63;;
9799;SDS011;4939;52.00085300;4.17406100;2022-10-16T14:25:28;12.95;;;2.80;;
9799;SDS011;4939;52.00085300;4.17406100;2022-10-16T14:30:25;15.23;;;2.85;;
9799;SDS011;4939;52.00085300;4.17406100;2022-10-16T14:32:58;13.75;;;2.20;;
9799;SDS011;4939;52.00085300;4.17406100;2022-10-16T14:37:54;12.63;;;2.15;;
9799;SDS011;4939;52.00085300;4.17406100;2022-10-16T14:40:28;15.80;;;2.30;;
9799;SDS011;4939;52.00085300;4.17406100;2022-10-16T14:42:55;14.10;;;2.85;;
9799;SDS011;4939;52.00085300;4.17406100;2022-10-16T14:45:22;15.48;;;2.63;;
9799;SDS011;4939;52.00085300;4.17406100;2022-10-16T14:47:53;12.65;;;2.25;;
9799;SDS011;4939;52.00085300;4.17406100;2022-10-16T14:50:21;11.18;;;2.63;;